createdAt,value
2023-08-20T00:01:57.267Z,101671.09
2023-08-20T00:03:59.108Z,101678.09
2023-08-20T00:06:01.265Z,101677.44
2023-08-20T00:08:03.634Z,101681.22
2023-08-20T00:10:05.793Z,101682.25
2023-08-20T00:12:07.495Z,101667.44
2023-08-20T00:14:09.061Z,101666.59
2023-08-20T00:16:11.350Z,101670.84
2023-08-20T00:18:13.346Z,101679.72
2023-08-20T00:20:18.032Z,101678.88
2023-08-20T00:22:20.564Z,101679.09
2023-08-20T00:24:22.423Z,101675.47
2023-08-20T00:26:24.341Z,101675.88
2023-08-20T00:28:26.121Z,101681.56
2023-08-20T00:30:27.786Z,101684.09
2023-08-20T00:32:29.533Z,101683.25
2023-08-20T00:34:31.157Z,101683.44
2023-08-20T00:36:32.678Z,101679.88
2023-08-20T00:38:34.285Z,101677.97
2023-08-20T00:40:36.018Z,101688.94
2023-08-20T00:42:38.516Z,101680.91
2023-08-20T00:44:42.213Z,101672.44
2023-08-20T00:46:44.093Z,101686.38
2023-08-20T00:48:45.734Z,101688.50
2023-08-20T00:50:47.438Z,101687.63
2023-08-20T00:52:49.425Z,101688.50
2023-08-20T00:54:51.252Z,101685.75
2023-08-20T00:56:53.093Z,101684.25
2023-08-20T00:58:55.631Z,101690.56
2023-08-20T01:00:57.282Z,101679.78
2023-08-20T01:02:58.985Z,101683.22
2023-08-20T01:05:02.188Z,101676.41
2023-08-20T01:07:46.288Z,101689.72
2023-08-20T01:10:01.132Z,101694.38
2023-08-20T01:14:17.903Z,101692.22
2023-08-20T01:16:19.457Z,101693.06
2023-08-20T01:18:21.075Z,101699.56
2023-08-20T01:20:28.292Z,101693.88
2023-08-20T01:22:36.146Z,101693.06
2023-08-20T01:25:07.058Z,101689.47
2023-08-20T01:27:47.746Z,101690.50
2023-08-20T01:29:50.163Z,101691.53
2023-08-20T01:31:53.164Z,101699.13
2023-08-20T01:33:58.377Z,101706.31
2023-08-20T01:36:00.549Z,101703.56
2023-08-20T01:38:02.199Z,101695.91
2023-08-20T01:40:04.973Z,101710.09
2023-08-20T01:42:07.212Z,101711.97
2023-08-20T01:44:08.950Z,101704.81
2023-08-20T01:46:10.863Z,101711.31
2023-08-20T01:48:12.621Z,101708.56
2023-08-20T01:50:14.432Z,101705.38
2023-08-20T01:52:16.045Z,101706.88
2023-08-20T01:54:18.224Z,101692.31
2023-08-20T01:56:19.869Z,101696.09
2023-08-20T01:58:21.469Z,101691.69
2023-08-20T02:00:23.036Z,101704.50
2023-08-20T02:02:25.134Z,101694.63
2023-08-20T02:04:26.886Z,101688.47
2023-08-20T02:06:28.503Z,101697.34
2023-08-20T02:08:30.063Z,101693.75
2023-08-20T02:10:31.628Z,101699.22
2023-08-20T02:12:33.290Z,101695.66
2023-08-20T02:14:36.166Z,101693.13
2023-08-20T02:16:38.066Z,101695.84
2023-08-20T02:18:39.706Z,101695.22
2023-08-20T02:20:44.432Z,101704.06
2023-08-20T02:22:46.053Z,101705.97
2023-08-20T02:24:47.943Z,101718.81
2023-08-20T02:26:49.573Z,101715.63
2023-08-20T02:28:51.487Z,101713.72
2023-08-20T02:30:53.355Z,101714.38
2023-08-20T02:32:55.004Z,101711.84
2023-08-20T02:34:56.650Z,101712.03
2023-08-20T02:36:58.270Z,101706.72
2023-08-20T02:38:59.842Z,101707.56
2023-08-20T02:41:02.222Z,101699.72
2023-08-20T02:43:03.959Z,101704.38
2023-08-20T02:45:06.214Z,101703.31
2023-08-20T02:47:07.840Z,101703.31
2023-08-20T02:49:09.380Z,101695.09
2023-08-20T02:51:10.930Z,101700.75
2023-08-20T02:53:12.746Z,101697.81
2023-08-20T02:55:14.433Z,101699.72
2023-08-20T02:57:16.304Z,101699.09
2023-08-20T02:59:17.958Z,101698.03
2023-08-20T03:01:24.870Z,101699.25
2023-08-20T03:03:26.527Z,101705.78
2023-08-20T03:05:28.181Z,101702.84
2023-08-20T03:07:29.761Z,101705.59
2023-08-20T03:09:31.400Z,101696.06
2023-08-20T03:11:32.929Z,101707.84
2023-08-20T03:13:34.669Z,101695.88
2023-08-20T03:15:36.344Z,101693.97
2023-08-20T03:17:38.344Z,101690.78
2023-08-20T03:19:57.762Z,101689.06
2023-08-20T03:21:59.384Z,101682.56
2023-08-20T03:24:01.038Z,101682.94
2023-08-20T03:26:03.608Z,101689.94
2023-08-20T03:28:05.526Z,101683.38
2023-08-20T03:30:08.327Z,101684.66
2023-08-20T03:32:10.655Z,101689.25
2023-08-20T03:34:12.281Z,101691.16
2023-08-20T03:36:13.893Z,101693.91
2023-08-20T03:38:15.483Z,101690.53
2023-08-20T03:40:17.197Z,101692.00
2023-08-20T03:42:18.911Z,101687.78
2023-08-20T03:44:20.629Z,101697.03
2023-08-20T03:46:22.240Z,101701.47
2023-08-20T03:48:24.004Z,101698.72
2023-08-20T03:50:25.711Z,101698.94
2023-08-20T03:52:27.330Z,101703.34
2023-08-20T03:54:30.228Z,101701.88
2023-08-20T03:56:31.850Z,101701.66
2023-08-20T03:58:33.449Z,101693.84
2023-08-20T04:00:36.029Z,101699.50
2023-08-20T04:02:37.636Z,101703.28
2023-08-20T04:04:39.313Z,101710.28
2023-08-20T04:06:40.909Z,101711.94
2023-08-20T04:08:43.307Z,101718.50
2023-08-20T04:10:46.899Z,101716.31
2023-08-20T04:12:48.526Z,101718.69
2023-08-20T04:14:50.112Z,101722.25
2023-08-20T04:16:51.754Z,101716.97
2023-08-20T04:18:53.319Z,101712.72
2023-08-20T04:20:56.721Z,101725.19
2023-08-20T04:22:58.306Z,101719.06
2023-08-20T04:24:59.996Z,101720.75
2023-08-20T04:27:02.264Z,101722.16
2023-08-20T04:29:04.110Z,101724.53
2023-08-20T04:31:05.806Z,101712.47
2023-08-20T04:33:07.809Z,101731.88
2023-08-20T04:35:09.585Z,101728.31
2023-08-20T04:37:11.146Z,101723.88
2023-08-20T04:39:12.798Z,101724.06
2023-08-20T04:41:14.383Z,101726.59
2023-08-20T04:43:16.679Z,101724.06
2023-08-20T04:45:20.569Z,101715.19
2023-08-20T04:47:22.178Z,101718.78
2023-08-20T04:49:23.925Z,101719.16
2023-08-20T04:51:25.476Z,101713.88
2023-08-20T04:53:27.249Z,101722.94
2023-08-20T04:55:29.329Z,101733.50
2023-08-20T04:57:30.878Z,101734.56
2023-08-20T04:59:32.564Z,101729.28
2023-08-20T05:01:34.228Z,101734.75
2023-08-20T05:03:36.092Z,101732.66
2023-08-20T05:05:37.797Z,101739.16
2023-08-20T05:07:39.341Z,101738.31
2023-08-20T05:09:40.873Z,101742.09
2023-08-20T05:11:42.843Z,101735.78
2023-08-20T05:13:46.668Z,101723.88
2023-08-20T05:15:48.239Z,101741.25
2023-08-20T05:17:49.944Z,101739.75
2023-08-20T05:19:51.581Z,101741.44
2023-08-20T05:21:56.979Z,101740.59
2023-08-20T05:23:58.665Z,101742.47
2023-08-20T05:26:00.398Z,101751.75
2023-08-20T05:28:02.550Z,101749.03
2023-08-20T05:30:04.554Z,101744.94
2023-08-20T05:32:06.354Z,101741.38
2023-08-20T05:34:08.004Z,101740.13
2023-08-20T05:36:09.615Z,101739.47
2023-08-20T05:38:11.323Z,101749.22
2023-08-20T05:40:12.945Z,101744.13
2023-08-20T05:42:14.633Z,101750.25
2023-08-20T05:44:16.443Z,101745.13
2023-08-20T05:46:18.091Z,101748.72
2023-08-20T05:48:19.760Z,101751.66
2023-08-20T05:50:21.517Z,101750.63
2023-08-20T05:52:23.382Z,101757.13
2023-08-20T05:54:25.085Z,101760.72
2023-08-20T05:56:26.893Z,101755.25
2023-08-20T05:58:28.580Z,101770.81
2023-08-20T06:00:30.173Z,101762.97
2023-08-20T06:02:31.793Z,101763.66
2023-08-20T06:04:33.569Z,101761.13
2023-08-20T06:06:35.223Z,101769.13
2023-08-20T06:08:36.918Z,101773.75
2023-08-20T06:10:38.459Z,101760.63
2023-08-20T06:12:40.201Z,101760.81
2023-08-20T06:14:41.758Z,101764.88
2023-08-20T06:16:43.529Z,101772.06
2023-08-20T06:18:45.222Z,101775.66
2023-08-20T06:20:46.804Z,101764.88
2023-08-20T06:22:48.831Z,101773.09
2023-08-20T06:24:50.425Z,101779.41
2023-08-20T06:26:52.860Z,101773.28
2023-08-20T06:28:54.572Z,101786.97
2023-08-20T06:30:56.164Z,101783.38
2023-08-20T06:32:57.738Z,101779.97
2023-08-20T06:34:59.342Z,101778.06
2023-08-20T06:37:00.902Z,101785.25
2023-08-20T06:39:03.066Z,101778.66
2023-08-20T06:41:04.668Z,101782.91
2023-08-20T06:43:06.307Z,101793.47
2023-08-20T06:45:09.217Z,101782.72
2023-08-20T06:47:10.756Z,101782.72
2023-08-20T06:49:12.381Z,101777.63
2023-08-20T06:51:20.848Z,101780.81
2023-08-20T06:53:22.558Z,101783.09
2023-08-20T06:55:24.179Z,101778.28
2023-08-20T06:57:25.818Z,101779.31
2023-08-20T06:59:28.218Z,101784.81
2023-08-20T07:01:30.108Z,101782.06
2023-08-20T07:03:31.692Z,101779.69
2023-08-20T07:05:33.356Z,101776.09
2023-08-20T07:07:35.017Z,101789.41
2023-08-20T07:09:36.998Z,101789.41
2023-08-20T07:11:38.613Z,101783.09
2023-08-20T07:13:40.206Z,101780.53
2023-08-20T07:15:41.817Z,101790.66
2023-08-20T07:17:46.036Z,101786.84
2023-08-20T07:19:48.284Z,101787.72
2023-08-20T07:21:50.596Z,101789.41
2023-08-20T07:23:52.161Z,101784.13
2023-08-20T07:26:05.614Z,101793.22
2023-08-20T07:28:10.829Z,101793.22
2023-08-20T07:30:12.875Z,101793.22
2023-08-20T07:32:14.472Z,101792.16
2023-08-20T07:34:16.698Z,101790.66
2023-08-20T07:36:19.223Z,101784.31
2023-08-20T07:38:20.770Z,101791.50
2023-08-20T07:40:22.364Z,101794.88
2023-08-20T07:42:23.981Z,101793.22
2023-08-20T07:44:25.665Z,101780.53
2023-08-20T07:46:27.375Z,101791.97
2023-08-20T07:48:28.970Z,101793.66
2023-08-20T07:50:30.987Z,101791.97
2023-08-20T07:52:33.413Z,101791.75
2023-08-20T07:54:35.070Z,101790.94
2023-08-20T07:56:36.672Z,101791.56
2023-08-20T07:58:38.267Z,101788.00
2023-08-20T08:00:40.008Z,101790.75
2023-08-20T08:02:41.740Z,101791.75
2023-08-20T08:04:45.381Z,101795.84
2023-08-20T08:06:48.049Z,101795.84
2023-08-20T08:08:49.693Z,101799.44
2023-08-20T08:10:51.295Z,101795.00
2023-08-20T08:12:52.990Z,101796.53
2023-08-20T08:14:54.628Z,101798.38
2023-08-20T08:16:56.647Z,101796.31
2023-08-20T08:18:58.271Z,101791.22
2023-08-20T08:20:59.894Z,101796.97
2023-08-20T08:23:01.776Z,101803.28
2023-08-20T08:25:03.634Z,101786.22
2023-08-20T08:27:05.326Z,101797.81
2023-08-20T08:29:08.103Z,101801.22
2023-08-20T08:31:09.693Z,101809.44
2023-08-20T08:33:11.314Z,101809.44
2023-08-20T08:35:13.096Z,101800.19
2023-08-20T08:37:16.253Z,101815.00
2023-08-20T08:39:17.921Z,101812.47
2023-08-20T08:41:24.635Z,101823.88
2023-08-20T08:43:27.890Z,101821.81
2023-08-20T08:45:32.311Z,101822.84
2023-08-20T08:47:36.359Z,101816.53
2023-08-20T08:49:38.230Z,101814.25
2023-08-20T08:51:41.796Z,101818.69
2023-08-20T08:53:46.918Z,101814.06
2023-08-20T08:55:48.637Z,101805.19
2023-08-20T08:57:50.289Z,101813.69
2023-08-20T08:59:52.017Z,101816.22
2023-08-20T09:01:54.197Z,101808.00
2023-08-20T09:03:55.817Z,101812.28
2023-08-20T09:06:01.489Z,101802.34
2023-08-20T09:08:03.094Z,101808.88
2023-08-20T09:10:04.995Z,101801.97
2023-08-20T09:12:20.859Z,101791.69
2023-08-20T09:14:30.889Z,101791.88
2023-08-20T09:16:33.085Z,101791.50
2023-08-20T09:18:41.797Z,101787.88
2023-08-20T09:20:43.361Z,101792.78
2023-08-20T09:22:50.636Z,101788.19
2023-08-20T09:24:57.174Z,101782.50
2023-08-20T09:27:01.634Z,101786.28
2023-08-20T09:29:04.480Z,101794.97
2023-08-20T09:31:06.264Z,101787.59
2023-08-20T09:33:16.848Z,101786.38
2023-08-20T09:35:21.588Z,101788.91
2023-08-20T09:37:24.999Z,101786.66
2023-08-20T09:39:26.543Z,101777.09
2023-08-20T09:41:28.939Z,101778.06
2023-08-20T09:43:32.104Z,101771.06
2023-08-20T09:45:33.840Z,101785.06
2023-08-20T09:47:38.181Z,101775.56
2023-08-20T09:49:42.256Z,101780.03
2023-08-20T09:51:45.763Z,101783.59
2023-08-20T09:53:57.990Z,101782.38
2023-08-20T09:56:10.368Z,101779.63
2023-08-20T09:58:12.596Z,101778.59
2023-08-20T10:00:15.269Z,101771.22
2023-08-20T10:02:17.470Z,101782.84
2023-08-20T10:04:20.052Z,101783.50
2023-08-20T10:06:21.960Z,101794.28
2023-08-20T10:08:23.659Z,101776.31
2023-08-20T10:10:26.812Z,101779.72
2023-08-20T10:12:29.241Z,101776.78
2023-08-20T10:14:30.902Z,101774.06
2023-08-20T10:16:34.696Z,101774.06
2023-08-20T10:18:36.590Z,101773.47
2023-08-20T10:20:41.535Z,101782.34
2023-08-20T10:22:44.897Z,101772.41
2023-08-20T10:24:51.953Z,101767.59
2023-08-20T10:27:14.182Z,101772.00
2023-08-20T10:29:40.712Z,101759.19
2023-08-20T10:31:48.965Z,101761.06
2023-08-20T10:33:55.051Z,101763.59
2023-08-20T10:35:56.639Z,101768.69
2023-08-20T10:38:12.330Z,101753.94
2023-08-20T10:40:13.884Z,101753.94
2023-08-20T10:42:23.265Z,101755.47
2023-08-20T10:44:25.010Z,101760.75
2023-08-20T10:46:31.192Z,101759.91
2023-08-20T10:48:35.200Z,101751.47
2023-08-20T10:50:37.810Z,101751.47
2023-08-20T10:52:41.161Z,101753.16
2023-08-20T10:54:42.905Z,101746.44
2023-08-20T10:56:45.506Z,101749.19
2023-08-20T10:58:48.506Z,101748.16
2023-08-20T11:01:21.136Z,101749.81
2023-08-20T11:03:22.890Z,101755.78
2023-08-20T11:05:24.958Z,101745.47
2023-08-20T11:07:28.466Z,101749.25
2023-08-20T11:09:31.243Z,101752.44
2023-08-20T11:11:33.426Z,101756.03
2023-08-20T11:13:36.289Z,101755.00
2023-08-20T11:15:39.589Z,101752.91
2023-08-20T11:17:48.380Z,101745.69
2023-08-20T11:20:06.629Z,101748.06
2023-08-20T11:22:10.469Z,101743.84
2023-08-20T11:24:12.779Z,101756.94
2023-08-20T11:26:14.417Z,101755.03
2023-08-20T11:28:16.017Z,101754.84
2023-08-20T11:30:17.865Z,101743.88
2023-08-20T11:32:20.383Z,101751.72
2023-08-20T11:34:22.381Z,101738.38
2023-08-20T11:36:24.209Z,101745.19
2023-08-20T11:38:26.418Z,101748.75
2023-08-20T11:40:28.018Z,101734.41
2023-08-20T11:42:29.860Z,101742.91
2023-08-20T11:44:44.790Z,101735.75
2023-08-20T11:46:46.528Z,101735.16
2023-08-20T11:49:05.726Z,101726.06
2023-08-20T11:51:07.365Z,101732.22
2023-08-20T11:53:11.169Z,101734.09
2023-08-20T11:55:12.821Z,101730.72
2023-08-20T11:57:14.476Z,101734.28
2023-08-20T11:59:17.842Z,101734.97
2023-08-20T12:01:20.338Z,101737.31
2023-08-20T12:03:23.074Z,101728.00
2023-08-20T12:05:29.215Z,101734.34
2023-08-20T12:07:30.805Z,101729.50
2023-08-20T12:09:32.979Z,101729.31
2023-08-20T12:11:34.764Z,101726.16
2023-08-20T12:13:36.545Z,101712.66
2023-08-20T12:15:38.139Z,101731.66
2023-08-20T12:17:39.734Z,101727.03
2023-08-20T12:19:41.324Z,101731.25
2023-08-20T12:21:44.355Z,101732.97
2023-08-20T12:23:45.911Z,101724.28
2023-08-20T12:25:51.171Z,101728.72
2023-08-20T12:27:52.767Z,101727.47
2023-08-20T12:29:54.348Z,101708.88
2023-08-20T12:31:56.195Z,101721.78
2023-08-20T12:33:57.746Z,101718.63
2023-08-20T12:35:59.692Z,101720.34
2023-08-20T12:38:01.663Z,101720.13
2023-08-20T12:40:05.088Z,101720.34
2023-08-20T12:42:07.087Z,101718.44
2023-08-20T12:44:08.793Z,101726.25
2023-08-20T12:46:10.483Z,101722.69
2023-08-20T12:48:12.242Z,101716.13
2023-08-20T12:50:15.382Z,101711.50
2023-08-20T12:52:17.300Z,101707.06
2023-08-20T12:54:18.931Z,101719.34
2023-08-20T12:56:20.509Z,101721.88
2023-08-20T12:58:22.089Z,101714.47
2023-08-20T13:00:28.415Z,101720.84
2023-08-20T13:02:30.410Z,101709.66
2023-08-20T13:04:32.349Z,101712.19
2023-08-20T13:06:34.348Z,101707.94
2023-08-20T13:08:36.214Z,101713.88
2023-08-20T13:10:38.173Z,101714.75
2023-08-20T13:12:42.887Z,101703.75
2023-08-20T13:14:44.738Z,101710.94
2023-08-20T13:16:46.672Z,101698.28
2023-08-20T13:18:48.654Z,101704.81
2023-08-20T13:20:50.395Z,101691.91
2023-08-20T13:22:53.059Z,101695.97
2023-08-20T13:24:54.600Z,101693.84
2023-08-20T13:26:56.246Z,101697.47
2023-08-20T13:28:57.988Z,101691.97
2023-08-20T13:30:59.613Z,101697.25
2023-08-20T13:33:01.933Z,101689.66
2023-08-20T13:35:05.577Z,101695.56
2023-08-20T13:37:07.246Z,101702.97
2023-08-20T13:39:08.959Z,101696.44
2023-08-20T13:41:10.858Z,101689.88
2023-08-20T13:43:12.469Z,101695.38
2023-08-20T13:45:13.985Z,101695.63
2023-08-20T13:47:15.560Z,101694.78
2023-08-20T13:49:17.124Z,101691.84
2023-08-20T13:51:18.863Z,101686.75
2023-08-20T13:53:20.494Z,101695.84
2023-08-20T13:55:22.667Z,101687.81
2023-08-20T13:57:24.429Z,101689.97
2023-08-20T13:59:26.088Z,101688.09
2023-08-20T14:01:27.800Z,101686.00
2023-08-20T14:03:29.528Z,101688.53
2023-08-20T14:05:31.205Z,101688.72
2023-08-20T14:07:34.122Z,101692.13
2023-08-20T14:09:37.078Z,101684.28
2023-08-20T14:11:38.845Z,101691.28
2023-08-20T14:13:41.153Z,101684.28
2023-08-20T14:15:42.833Z,101686.41
2023-08-20T14:17:44.433Z,101679.66
2023-08-20T14:19:46.131Z,101678.19
2023-08-20T14:21:47.972Z,101680.91
2023-08-20T14:23:49.558Z,101681.78
2023-08-20T14:25:51.249Z,101676.94
2023-08-20T14:27:52.819Z,101683.25
2023-08-20T14:29:54.482Z,101675.03
2023-08-20T14:31:56.032Z,101679.69
2023-08-20T14:33:58.109Z,101683.09
2023-08-20T14:35:59.806Z,101678.84
2023-08-20T14:38:01.493Z,101673.13
2023-08-20T14:40:06.628Z,101676.09
2023-08-20T14:42:08.970Z,101684.13
2023-08-20T14:44:10.611Z,101682.22
2023-08-20T14:46:12.278Z,101675.63
2023-08-20T14:48:13.955Z,101681.19
2023-08-20T14:50:15.586Z,101680.13
2023-08-20T14:52:20.208Z,101684.53
2023-08-20T14:54:35.875Z,101676.31
2023-08-20T14:56:38.114Z,101678.22
2023-08-20T14:58:39.699Z,101678.84
2023-08-20T15:00:41.323Z,101677.81
2023-08-20T15:02:43.090Z,101672.53
2023-08-20T15:04:45.072Z,101663.00
2023-08-20T15:06:46.732Z,101673.16
2023-08-20T15:08:48.616Z,101669.38
2023-08-20T15:10:59.129Z,101669.38
2023-08-20T15:13:00.761Z,101663.88
2023-08-20T15:15:04.905Z,101667.03
2023-08-20T15:17:06.528Z,101660.72
2023-08-20T15:19:08.141Z,101666.81
2023-08-20T15:21:12.560Z,101663.25
2023-08-20T15:23:14.532Z,101670.66
2023-08-20T15:25:16.195Z,101667.03
2023-08-20T15:27:18.587Z,101662.41
2023-08-20T15:29:20.200Z,101662.19
2023-08-20T15:31:22.383Z,101662.19
2023-08-20T15:33:24.142Z,101667.91
2023-08-20T15:35:25.912Z,101660.50
2023-08-20T15:37:28.353Z,101655.63
2023-08-20T15:39:34.232Z,101660.09
2023-08-20T15:41:35.783Z,101662.84
2023-08-20T15:43:37.460Z,101653.75
2023-08-20T15:45:39.068Z,101655.63
2023-08-20T15:47:40.944Z,101659.25
2023-08-20T15:49:42.778Z,101648.69
2023-08-20T15:51:44.455Z,101643.81
2023-08-20T15:53:47.204Z,101649.09
2023-08-20T15:55:48.776Z,101642.75
2023-08-20T15:57:51.241Z,101650.59
2023-08-20T15:59:53.030Z,101644.22
2023-08-20T16:01:54.666Z,101640.84
2023-08-20T16:03:56.638Z,101653.53
2023-08-20T16:05:59.964Z,101654.19
2023-08-20T16:08:01.587Z,101651.00
2023-08-20T16:10:05.514Z,101651.84
2023-08-20T16:12:09.005Z,101648.88
2023-08-20T16:14:11.986Z,101650.38
2023-08-20T16:16:14.430Z,101649.53
2023-08-20T16:18:16.146Z,101663.91
2023-08-20T16:20:17.823Z,101646.78
2023-08-20T16:22:19.587Z,101643.19
2023-08-20T16:24:21.270Z,101651.22
2023-08-20T16:26:22.986Z,101648.69
2023-08-20T16:28:25.100Z,101651.22
2023-08-20T16:30:26.715Z,101655.66
2023-08-20T16:32:28.512Z,101651.84
2023-08-20T16:34:31.343Z,101644.88
2023-08-20T16:36:33.030Z,101641.06
2023-08-20T16:38:34.638Z,101644.69
2023-08-20T16:40:36.240Z,101642.16
2023-08-20T16:42:38.015Z,101642.34
2023-08-20T16:44:39.916Z,101637.91
2023-08-20T16:46:41.479Z,101637.91
2023-08-20T16:48:43.101Z,101639.59
2023-08-20T16:50:44.820Z,101639.59
2023-08-20T16:52:46.788Z,101640.22
2023-08-20T16:54:49.322Z,101628.63
2023-08-20T16:56:50.921Z,101633.25
2023-08-20T16:58:53.502Z,101637.47
2023-08-20T17:00:56.422Z,101631.56
2023-08-20T17:02:58.129Z,101643.81
2023-08-20T17:04:59.753Z,101631.78
2023-08-20T17:07:01.910Z,101638.31
2023-08-20T17:09:05.211Z,101637.69
2023-08-20T17:11:11.471Z,101647.44
2023-08-20T17:13:13.631Z,101629.66
2023-08-20T17:15:15.786Z,101636.44
2023-08-20T17:17:18.559Z,101644.69
2023-08-20T17:19:22.011Z,101638.97
2023-08-20T17:21:23.713Z,101636.22
2023-08-20T17:23:25.790Z,101631.78
2023-08-20T17:25:27.352Z,101638.13
2023-08-20T17:27:29.043Z,101638.97
2023-08-20T17:29:30.773Z,101637.06
2023-08-20T17:31:32.657Z,101646.19
2023-08-20T17:33:35.542Z,101645.31
2023-08-20T17:35:37.129Z,101648.06
2023-08-20T17:37:39.673Z,101642.34
2023-08-20T17:39:41.341Z,101648.06
2023-08-20T17:41:43.033Z,101648.06
2023-08-20T17:43:44.591Z,101645.31
2023-08-20T17:45:46.254Z,101648.94
2023-08-20T17:47:47.985Z,101643.44
2023-08-20T17:49:49.600Z,101640.03
2023-08-20T17:51:51.171Z,101645.31
2023-08-20T17:53:52.720Z,101657.16
2023-08-20T17:55:55.012Z,101650.38
2023-08-20T17:57:56.677Z,101669.19
2023-08-20T17:59:58.370Z,101663.91
2023-08-20T18:02:00.014Z,101662.00
2023-08-20T18:04:01.681Z,101652.06
2023-08-20T18:06:03.487Z,101667.50
2023-08-20T18:08:05.509Z,101670.25
2023-08-20T18:10:07.717Z,101666.66
2023-08-20T18:12:09.465Z,101664.97
2023-08-20T18:14:11.011Z,101663.25
2023-08-20T18:16:12.784Z,101662.63
2023-08-20T18:18:14.602Z,101664.13
2023-08-20T18:20:16.512Z,101667.28
2023-08-20T18:22:18.099Z,101673.41
2023-08-20T18:24:19.659Z,101678.91
2023-08-20T18:26:21.492Z,101678.91
2023-08-20T18:28:23.116Z,101671.69
2023-08-20T18:30:25.059Z,101680.81
2023-08-20T18:32:26.697Z,101681.03
2023-08-20T18:34:28.827Z,101693.47
2023-08-20T18:36:32.565Z,101697.28
2023-08-20T18:38:34.505Z,101698.13
2023-08-20T18:40:36.064Z,101704.03
2023-08-20T18:42:38.960Z,101713.13
2023-08-20T18:44:42.484Z,101708.91
2023-08-20T18:46:44.183Z,101714.41
2023-08-20T18:48:45.849Z,101718.81
2023-08-20T18:50:49.334Z,101721.97
2023-08-20T18:52:50.871Z,101714.16
2023-08-20T18:54:52.464Z,101730.22
2023-08-20T18:56:54.095Z,101737.81
2023-08-20T18:58:55.633Z,101740.56
2023-08-20T19:00:57.333Z,101733.78
2023-08-20T19:02:58.960Z,101746.47
2023-08-20T19:05:00.653Z,101754.31
2023-08-20T19:07:02.885Z,101753.69
2023-08-20T19:09:08.465Z,101753.88
2023-08-20T19:11:10.225Z,101757.47
2023-08-20T19:13:12.822Z,101765.50
2023-08-20T19:15:14.490Z,101770.16
2023-08-20T19:17:16.202Z,101773.09
2023-08-20T19:19:17.848Z,101783.22
2023-08-20T19:21:19.404Z,101788.94
2023-08-20T19:23:22.287Z,101799.72
2023-08-20T19:25:24.258Z,101798.25
2023-08-20T19:27:25.898Z,101801.81
2023-08-20T19:29:27.487Z,101806.84
2023-08-20T19:31:29.113Z,101810.25
2023-08-20T19:33:33.455Z,101821.66
2023-08-20T19:35:37.022Z,101824.41
2023-08-20T19:37:39.008Z,101821.66
2023-08-20T19:39:40.678Z,101829.03
2023-08-20T19:41:42.356Z,101839.19
2023-08-20T19:43:43.969Z,101837.25
2023-08-20T19:45:45.642Z,101841.09
2023-08-20T19:47:47.498Z,101846.97
2023-08-20T19:49:49.097Z,101858.59
2023-08-20T19:51:50.708Z,101852.69
2023-08-20T19:53:52.454Z,101862.78
2023-08-20T19:55:58.838Z,101866.81
2023-08-20T19:58:02.096Z,101862.16
2023-08-20T20:00:12.115Z,101872.50
2023-08-20T20:02:13.762Z,101870.97
2023-08-20T20:04:15.680Z,101881.09
2023-08-20T20:06:17.358Z,101868.63
2023-08-20T20:08:19.174Z,101884.88
2023-08-20T20:10:20.879Z,101880.00
2023-08-20T20:12:22.535Z,101878.09
2023-08-20T20:14:24.093Z,101885.50
2023-08-20T20:16:25.829Z,101877.66
2023-08-20T20:18:29.184Z,101890.31
2023-08-20T20:20:32.537Z,101894.97
2023-08-20T20:22:34.198Z,101902.56
2023-08-20T20:24:35.816Z,101894.53
2023-08-20T20:26:40.216Z,101905.50
2023-08-20T20:28:41.850Z,101905.50
2023-08-20T20:30:43.480Z,101899.53
2023-08-20T20:32:45.452Z,101907.56
2023-08-20T20:34:48.373Z,101907.78
2023-08-20T20:36:49.942Z,101910.53
2023-08-20T20:38:51.499Z,101907.13
2023-08-20T20:40:53.190Z,101906.69
2023-08-20T20:42:54.799Z,101901.22
2023-08-20T20:44:56.411Z,101897.16
2023-08-20T20:46:58.055Z,101905.19
2023-08-20T20:48:59.612Z,101913.41
2023-08-20T20:51:01.341Z,101915.53
2023-08-20T20:53:03.137Z,101900.28
2023-08-20T20:55:06.314Z,101916.56
2023-08-20T20:57:08.889Z,101905.97
2023-08-20T20:59:10.481Z,101914.22
2023-08-20T21:01:12.253Z,101914.41
2023-08-20T21:03:13.976Z,101918.66
2023-08-20T21:05:15.747Z,101919.03
2023-08-20T21:07:17.342Z,101919.03
2023-08-20T21:09:18.936Z,101923.66
2023-08-20T21:11:20.534Z,101924.91
2023-08-20T21:13:22.368Z,101928.31
2023-08-20T21:15:24.065Z,101925.97
2023-08-20T21:17:25.885Z,101923.44
2023-08-20T21:19:27.705Z,101933.34
2023-08-20T21:21:29.247Z,101935.03
2023-08-20T21:23:30.874Z,101935.44
2023-08-20T21:25:32.562Z,101944.69
2023-08-20T21:27:34.176Z,101938.19
2023-08-20T21:29:36.760Z,101943.88
2023-08-20T21:31:38.465Z,101942.84
2023-08-20T21:33:40.017Z,101931.56
2023-08-20T21:35:41.606Z,101944.06
2023-08-20T21:37:43.224Z,101937.25
2023-08-20T21:39:45.502Z,101939.81
2023-08-20T21:41:47.358Z,101941.06
2023-08-20T21:43:49.246Z,101947.19
2023-08-20T21:45:50.894Z,101941.91
2023-08-20T21:49:59.029Z,101946.34
2023-08-20T21:52:00.582Z,101938.72
2023-08-20T21:54:03.543Z,101950.34
2023-08-20T21:56:05.409Z,101946.06
2023-08-20T21:58:07.103Z,101945.88
2023-08-20T22:00:18.556Z,101942.28
2023-08-20T22:02:20.368Z,101952.44
2023-08-20T22:04:22.276Z,101948.38
2023-08-20T22:06:23.875Z,101943.91
2023-08-20T22:08:25.530Z,101948.38
2023-08-20T22:10:27.324Z,101949.41
2023-08-20T22:12:28.851Z,101952.53
2023-08-20T22:14:30.542Z,101956.31
2023-08-20T22:16:32.444Z,101963.31
2023-08-20T22:18:34.054Z,101959.72
2023-08-20T22:20:35.658Z,101959.06
2023-08-20T22:22:39.255Z,101952.09
2023-08-20T22:24:41.276Z,101968.53
2023-08-20T22:26:42.890Z,101962.38
2023-08-20T22:28:44.458Z,101974.88
2023-08-20T22:30:46.032Z,101969.56
2023-08-20T22:32:47.665Z,101973.34
2023-08-20T22:34:53.014Z,101968.06
2023-08-20T22:36:54.545Z,101966.19
2023-08-20T22:38:56.187Z,101974.41
2023-08-20T22:40:57.852Z,101972.88
2023-08-20T22:42:59.461Z,101969.47
2023-08-20T22:45:01.158Z,101977.31
2023-08-20T22:47:03.494Z,101972.03
2023-08-20T22:49:05.114Z,101968.41
2023-08-20T22:51:06.789Z,101969.47
2023-08-20T22:53:08.421Z,101967.56
2023-08-20T22:55:11.297Z,101967.13
2023-08-20T22:57:13.105Z,101978.94
2023-08-20T22:59:16.031Z,101972.81
2023-08-20T23:01:17.696Z,101974.47
2023-08-20T23:03:19.381Z,101968.34
2023-08-20T23:05:21.135Z,101970.22
2023-08-20T23:07:22.669Z,101972.97
2023-08-20T23:09:24.254Z,101976.56
2023-08-20T23:11:25.935Z,101972.31
2023-08-20T23:13:27.524Z,101968.53
2023-08-20T23:15:29.085Z,101973.16
2023-08-20T23:17:31.143Z,101980.53
2023-08-20T23:19:32.935Z,101976.09
2023-08-20T23:21:34.571Z,101975.25
2023-08-20T23:23:36.231Z,101977.16
2023-08-20T23:25:37.796Z,101973.53